Terminal Aerodrome Forecast
Issued by NWS

Current Version | Previous Version | Text Only | Print | Product List | Glossary On
Versions: 1 2 3 4 5 6 7 8 9 10 11 12 13 14 15 16 17 18 19 20 21 22
000
FTUS43 KIWX 220500
TAFSBN
TAF
KSBN 220530Z 2206/2306 18004KT P6SM BKN100
     FM220700 19004KT 4SM -SHRA BR SCT025 BKN050
      TEMPO 2207/2210 2SM TSRA BR BKN025CB OVC050
     FM221200 21005KT P6SM BKN035
     FM221700 26006KT P6SM BKN050=

USA.gov is the U.S. government's official web portal to all federal, state and local government web resources and services.